Time;durP1;ratioP1;P1;durP2;ratioP2;P2;SDS_P1;SDS_P2;PMS_P1;PMS_P2;Temp;Humidity;BMP_temperature;BMP_pressure;BME280_temperature;BME280_humidity;BME280_pressure;Samples;Min_cycle;Max_cycle;Signal;HPM_P1;HPM_P2
2022/02/18 00:00:56;;;;;;;11.80;7.22;;;;;;;3.41;100.00;96365.06;5131566;27;20407;-46
2022/02/18 00:03:23;;;;;;;17.58;9.48;;;;;;;3.47;100.00;96377.56;5131714;27;20035;-49
2022/02/18 00:05:48;;;;;;;17.85;8.85;;;;;;;3.49;100.00;96377.47;5113676;27;20046;-50
2022/02/18 00:08:14;;;;;;;18.92;10.35;;;;;;;3.52;100.00;96377.28;5129920;27;20426;-52
2022/02/18 00:10:43;;;;;;;19.50;11.00;;;;;;;3.57;100.00;96368.38;5131905;27;20047;-50
2022/02/18 00:13:12;;;;;;;13.52;6.93;;;;;;;3.57;100.00;96380.41;5131693;27;20609;-47
2022/02/18 00:15:38;;;;;;;18.70;9.88;;;;;;;3.57;100.00;96372.69;5131811;27;20046;-48
2022/02/18 00:18:05;;;;;;;18.02;10.27;;;;;;;3.58;100.00;96376.91;5130898;27;20086;-47
2022/02/18 00:20:33;;;;;;;19.40;11.07;;;;;;;3.60;100.00;96370.78;5131536;27;20092;-48
2022/02/18 00:23:07;;;;;;;15.85;8.40;;;;;;;3.61;100.00;96375.00;5131742;27;20158;-49
2022/02/18 00:25:34;;;;;;;11.60;7.22;;;;;;;3.61;100.00;96366.47;5130612;27;20649;-46
2022/02/18 00:28:00;;;;;;;14.38;8.27;;;;;;;3.51;100.00;96360.25;5130669;27;20134;-52
2022/02/18 00:30:27;;;;;;;14.73;8.85;;;;;;;3.60;100.00;96355.38;5131382;28;20042;-50
2022/02/18 00:32:53;;;;;;;16.42;9.27;;;;;;;3.66;100.00;96365.28;5112804;28;20087;-48
2022/02/18 00:35:21;;;;;;;16.23;9.02;;;;;;;3.73;100.00;96348.56;5129749;28;20046;-50
2022/02/18 00:37:47;;;;;;;14.63;8.18;;;;;;;3.69;100.00;96356.56;5130077;28;20561;-51
2022/02/18 00:40:13;;;;;;;14.18;8.52;;;;;;;3.75;100.00;96341.63;5129640;28;20043;-53
2022/02/18 00:42:40;;;;;;;16.17;9.30;;;;;;;3.78;100.00;96353.44;5131083;28;20066;-52
2022/02/18 00:45:06;;;;;;;13.60;7.72;;;;;;;3.79;100.00;96355.91;5112349;28;20039;-51
2022/02/18 00:47:32;;;;;;;12.27;7.18;;;;;;;3.79;100.00;96340.50;5130990;28;20038;-52
2022/02/18 00:49:59;;;;;;;13.35;7.25;;;;;;;3.81;100.00;96360.97;5131632;28;20039;-51
2022/02/18 00:52:24;;;;;;;13.18;8.00;;;;;;;3.84;100.00;96369.31;5112989;28;20055;-51
2022/02/18 00:54:52;;;;;;;13.30;7.95;;;;;;;3.77;100.00;96360.31;5129835;28;20506;-49
2022/02/18 00:57:18;;;;;;;10.57;6.68;;;;;;;3.90;100.00;96365.53;5130702;28;20039;-48
2022/02/18 00:59:44;;;;;;;12.00;7.00;;;;;;;3.92;100.00;96366.28;5112630;28;20039;-48
2022/02/18 01:02:11;;;;;;;8.95;5.35;;;;;;;3.95;100.00;96363.53;5131596;28;20067;-50
2022/02/18 01:04:38;;;;;;;12.38;6.80;;;;;;;3.93;100.00;96372.22;5128731;28;20044;-50
2022/02/18 01:07:04;;;;;;;7.10;4.70;;;;;;;3.91;100.00;96381.78;5129777;28;20046;-48
2022/02/18 01:09:30;;;;;;;12.18;6.72;;;;;;;3.89;100.00;96363.06;5111937;28;20039;-50
2022/02/18 01:11:56;;;;;;;13.77;8.35;;;;;;;3.86;100.00;96363.25;5131078;28;20088;-53
2022/02/18 01:14:23;;;;;;;11.35;7.25;;;;;;;3.93;100.00;96375.63;5112203;28;20053;-47
2022/02/18 01:16:50;;;;;;;8.88;5.15;;;;;;;4.03;100.00;96375.91;5130662;28;20061;-50
2022/02/18 01:19:16;;;;;;;11.48;5.85;;;;;;;4.04;100.00;96393.78;5131009;28;20563;-51
2022/02/18 01:21:42;;;;;;;7.85;5.40;;;;;;;3.93;100.00;96367.91;5130852;28;20043;-54
2022/02/18 01:24:08;;;;;;;9.30;5.38;;;;;;;3.89;100.00;96381.88;5130666;28;20069;-51
2022/02/18 01:26:34;;;;;;;9.50;6.07;;;;;;;3.84;100.00;96373.63;5130097;28;20126;-49
2022/02/18 01:29:00;;;;;;;8.80;4.80;;;;;;;3.84;100.00;96389.84;5092190;28;20503;-54
2022/02/18 01:31:26;;;;;;;9.13;4.78;;;;;;;3.78;100.00;96379.94;5109565;28;20097;-48
2022/02/18 01:33:53;;;;;;;10.68;6.13;;;;;;;3.74;100.00;96370.78;5120988;28;20049;-49
2022/02/18 01:36:19;;;;;;;11.20;5.63;;;;;;;3.80;100.00;96383.25;5114827;27;20195;-52
2022/02/18 01:38:46;;;;;;;9.35;5.38;;;;;;;3.77;100.00;96378.28;5115927;27;20043;-49
2022/02/18 01:41:13;;;;;;;8.70;4.65;;;;;;;3.79;100.00;96385.91;5124699;27;20043;-49
2022/02/18 01:43:49;;;;;;;8.07;4.70;;;;;;;3.83;100.00;96384.81;5133789;27;20574;-52
2022/02/18 01:46:15;;;;;;;7.47;4.97;;;;;;;3.88;100.00;96392.22;5112919;28;20081;-47
2022/02/18 01:48:40;;;;;;;10.10;6.43;;;;;;;3.89;100.00;96383.63;5131541;27;20450;-48
2022/02/18 01:51:06;;;;;;;7.07;4.28;;;;;;;3.89;100.00;96394.72;5134600;27;20039;-48
2022/02/18 01:53:32;;;;;;;8.50;5.50;;;;;;;3.86;100.00;96400.06;5116165;27;20024;-49
2022/02/18 01:55:58;;;;;;;6.85;4.47;;;;;;;3.82;100.00;96396.81;5115767;27;20031;-45
2022/02/18 01:58:26;;;;;;;11.10;5.65;;;;;;;3.80;100.00;96401.25;5115656;27;20058;-47
2022/02/18 02:00:54;;;;;;;11.80;6.45;;;;;;;3.67;100.00;96372.06;5132799;27;20536;-47
2022/02/18 02:03:20;;;;;;;10.52;6.47;;;;;;;3.79;100.00;96399.59;5133609;27;20358;-45
2022/02/18 02:05:47;;;;;;;9.02;5.82;;;;;;;3.82;100.00;96408.88;5115768;27;20494;-46
2022/02/18 02:08:13;;;;;;;12.35;6.65;;;;;;;3.80;100.00;96408.13;5132862;27;20046;-46
2022/02/18 02:10:44;;;;;;;11.35;6.10;;;;;;;3.82;100.00;96408.88;5128082;27;20043;-46
2022/02/18 02:13:54;;;;;;;6.90;4.22;;;;;;;3.78;100.00;96415.09;5133922;27;20042;-51
2022/02/18 02:16:23;;;;;;;7.97;4.97;;;;;;;3.78;100.00;96415.91;5106424;27;20586;-49
2022/02/18 02:18:49;;;;;;;8.98;5.03;;;;;;;3.67;100.00;96415.72;5132493;27;20134;-49
2022/02/18 02:21:16;;;;;;;8.35;5.68;;;;;;;3.70;100.00;96430.13;5115198;27;20100;-50
2022/02/18 02:23:47;;;;;;;10.18;6.38;;;;;;;3.69;100.00;96424.16;5115188;27;20038;-46
2022/02/18 02:26:17;;;;;;;8.90;6.00;;;;;;;3.70;100.00;96425.84;5115540;27;20031;-49
2022/02/18 02:28:44;;;;;;;10.55;6.43;;;;;;;3.70;100.00;96423.25;5115004;27;20042;-47
2022/02/18 02:31:11;;;;;;;10.38;5.28;;;;;;;3.69;100.00;96428.47;5131981;27;20498;-47
2022/02/18 02:33:38;;;;;;;9.68;5.93;;;;;;;3.63;100.00;96421.13;5114936;27;20506;-47
2022/02/18 02:36:05;;;;;;;12.68;6.47;;;;;;;3.60;100.00;96411.88;5094628;27;20626;-47
2022/02/18 02:38:30;;;;;;;12.43;7.13;;;;;;;3.64;100.00;96404.81;5115183;27;20129;-46
2022/02/18 02:40:57;;;;;;;9.95;5.05;;;;;;;3.70;100.00;96430.97;5133573;27;20055;-49
2022/02/18 02:43:23;;;;;;;8.73;5.22;;;;;;;3.54;100.00;96403.72;5122102;27;20480;-48
2022/02/18 02:45:49;;;;;;;9.65;6.07;;;;;;;3.64;100.00;96428.75;5114880;27;20490;-50
2022/02/18 02:48:18;;;;;;;11.50;7.20;;;;;;;3.68;100.00;96435.34;5114415;27;20046;-47
2022/02/18 02:50:53;;;;;;;9.23;5.90;;;;;;;3.67;100.00;96432.88;5096254;28;20039;-47
2022/02/18 02:53:21;;;;;;;9.63;4.20;;;;;;;3.68;100.00;96449.94;5122596;27;20552;-49
2022/02/18 02:55:47;;;;;;;10.68;6.35;;;;;;;3.58;100.00;96418.84;5121886;27;20119;-47
2022/02/18 02:58:13;;;;;;;9.35;5.57;;;;;;;3.73;100.00;96441.06;5125031;27;20046;-47
2022/02/18 03:00:40;;;;;;;9.35;4.75;;;;;;;3.64;100.00;96428.75;5113804;27;20043;-51
2022/02/18 03:03:06;;;;;;;7.68;5.03;;;;;;;3.73;100.00;96433.34;5114618;27;20091;-49
2022/02/18 03:05:43;;;;;;;12.25;6.70;;;;;;;3.77;100.00;96444.25;5098494;27;20413;-47
2022/02/18 03:08:09;;;;;;;10.07;5.90;;;;;;;3.84;100.00;96461.78;5114502;27;20148;-47
2022/02/18 03:10:37;;;;;;;8.77;4.80;;;;;;;3.85;100.00;96465.19;5130765;27;20043;-46
2022/02/18 03:13:08;;;;;;;9.20;5.18;;;;;;;3.73;100.00;96447.91;5113897;27;20045;-48
2022/02/18 03:15:37;;;;;;;9.38;6.03;;;;;;;3.82;100.00;96461.06;5130707;27;20422;-49
2022/02/18 03:18:11;;;;;;;9.52;5.50;;;;;;;3.88;100.00;96466.75;5131871;27;20043;-48
2022/02/18 03:20:40;;;;;;;9.38;5.57;;;;;;;3.98;100.00;96483.28;5110415;28;20040;-47
2022/02/18 03:23:06;;;;;;;10.77;5.82;;;;;;;3.94;100.00;96472.34;5116318;27;20540;-47
2022/02/18 03:25:32;;;;;;;8.13;4.65;;;;;;;3.98;100.00;96480.72;5093912;28;20036;-46
2022/02/18 03:27:58;;;;;;;11.38;6.93;;;;;;;3.96;100.00;96474.84;5117832;27;20422;-47
2022/02/18 03:30:27;;;;;;;12.75;7.18;;;;;;;4.01;100.00;96478.78;5131071;27;20156;-47
2022/02/18 03:32:54;;;;;;;11.35;6.53;;;;;;;3.94;100.00;96468.94;5132099;27;20046;-47
2022/02/18 03:35:24;;;;;;;12.13;7.00;;;;;;;4.05;100.00;96480.25;5113912;27;20425;-47
2022/02/18 03:37:50;;;;;;;13.50;7.00;;;;;;;4.06;100.00;96476.78;5113767;27;20414;-50
2022/02/18 03:40:29;;;;;;;11.35;7.05;;;;;;;4.08;100.00;96474.91;5112383;27;20042;-47
2022/02/18 03:42:55;;;;;;;12.10;7.57;;;;;;;4.10;100.00;96470.53;5113282;27;20043;-48
2022/02/18 03:45:21;;;;;;;11.95;7.20;;;;;;;4.14;100.00;96471.97;5098272;28;20048;-46
2022/02/18 03:47:48;;;;;;;12.52;7.93;;;;;;;4.20;100.00;96488.78;5110590;28;20047;-47
2022/02/18 03:50:16;;;;;;;11.52;6.35;;;;;;;4.25;100.00;96491.91;5104289;27;20042;-48
2022/02/18 03:52:41;;;;;;;11.20;6.18;;;;;;;4.07;100.00;96457.88;5131129;27;20529;-46
2022/02/18 03:55:07;;;;;;;10.88;7.45;;;;;;;4.17;100.00;96486.41;5113594;27;20109;-46
2022/02/18 03:57:37;;;;;;;13.60;7.50;;;;;;;4.16;100.00;96497.59;5130904;27;20578;-46
2022/02/18 04:00:05;;;;;;;9.65;5.18;;;;;;;4.18;100.00;96495.78;5130943;27;20042;-46
2022/02/18 04:02:33;;;;;;;11.70;6.32;;;;;;;4.20;100.00;96494.75;5131470;27;20183;-47
2022/02/18 04:05:01;;;;;;;11.65;6.78;;;;;;;4.20;100.00;96497.31;5113579;27;20526;-47
2022/02/18 04:07:34;;;;;;;14.35;7.78;;;;;;;4.22;100.00;96492.09;5113863;27;20039;-47
2022/02/18 04:10:02;;;;;;;10.15;6.35;;;;;;;4.21;100.00;96505.88;5129484;27;20047;-47
2022/02/18 04:12:32;;;;;;;12.35;7.25;;;;;;;4.20;100.00;96497.31;5112419;27;20038;-46
2022/02/18 04:15:03;;;;;;;12.55;6.88;;;;;;;4.29;100.00;96505.41;5113410;27;20039;-47
2022/02/18 04:17:32;;;;;;;14.35;7.43;;;;;;;4.26;100.00;96509.81;5113119;27;20043;-48
2022/02/18 04:20:17;;;;;;;11.82;6.80;;;;;;;4.32;100.00;96515.50;5112661;27;20042;-47
2022/02/18 04:22:55;;;;;;;12.48;7.10;;;;;;;4.34;100.00;96511.94;5113282;28;20086;-49
2022/02/18 04:25:26;;;;;;;11.60;6.43;;;;;;;4.37;100.00;96521.19;5113236;27;20616;-49
2022/02/18 04:27:57;;;;;;;14.30;7.00;;;;;;;4.34;100.00;96517.09;5116567;27;20045;-50
2022/02/18 04:30:23;;;;;;;12.07;6.50;;;;;;;4.31;100.00;96532.69;5131434;27;20046;-47
2022/02/18 04:32:50;;;;;;;11.30;6.18;;;;;;;4.15;100.00;96512.19;5115802;28;20482;-46
2022/02/18 04:35:16;;;;;;;13.68;8.18;;;;;;;4.18;100.00;96529.19;5132129;27;20042;-43
2022/02/18 04:37:42;;;;;;;14.45;7.93;;;;;;;4.13;100.00;96524.34;5141857;27;20064;-46
2022/02/18 04:40:09;;;;;;;10.73;6.70;;;;;;;4.20;100.00;96535.06;5131174;27;20082;-47
2022/02/18 04:42:34;;;;;;;12.75;7.28;;;;;;;4.14;100.00;96535.41;5136408;27;20050;-47
2022/02/18 04:45:00;;;;;;;16.02;7.47;;;;;;;4.14;100.00;96532.84;5131037;28;20133;-46
2022/02/18 04:47:26;;;;;;;12.90;7.22;;;;;;;3.94;100.00;96499.78;5146467;27;20038;-47
2022/02/18 04:49:52;;;;;;;11.43;7.03;;;;;;;4.09;100.00;96538.25;5134134;27;20422;-48
2022/02/18 04:52:17;;;;;;;7.93;4.78;;;;;;;4.11;100.00;96551.03;5121347;27;20039;-46
2022/02/18 04:54:43;;;;;;;8.32;5.30;;;;;;;3.99;100.00;96542.28;5138892;27;20113;-49
2022/02/18 04:57:09;;;;;;;12.68;7.32;;;;;;;4.08;100.00;96553.78;5120905;27;20107;-46
2022/02/18 04:59:35;;;;;;;13.18;7.00;;;;;;;4.07;100.00;96539.28;5138418;27;20084;-46
2022/02/18 05:02:01;;;;;;;14.75;7.75;;;;;;;4.19;100.00;96547.09;5118415;28;20051;-46
2022/02/18 05:04:27;;;;;;;15.07;7.35;;;;;;;4.28;100.00;96550.03;5118811;28;20494;-48
2022/02/18 05:06:53;;;;;;;11.32;5.72;;;;;;;4.16;100.00;96544.69;5120692;27;20087;-49
2022/02/18 05:09:18;;;;;;;12.63;6.97;;;;;;;4.22;100.00;96556.38;5119372;28;20047;-49
2022/02/18 05:11:44;;;;;;;9.98;6.53;;;;;;;4.24;100.00;96565.63;5112368;28;20035;-48
2022/02/18 05:14:10;;;;;;;16.60;7.38;;;;;;;4.29;100.00;96569.69;5110904;28;20042;-46
2022/02/18 05:16:35;;;;;;;11.05;7.15;;;;;;;4.34;100.00;96565.09;5112859;28;20527;-46
2022/02/18 05:19:04;;;;;;;11.05;6.72;;;;;;;4.29;100.00;96551.69;5112806;28;20032;-47
2022/02/18 05:21:31;;;;;;;9.83;6.53;;;;;;;4.41;100.00;96577.50;5119160;27;20503;-47
2022/02/18 05:23:57;;;;;;;12.80;6.80;;;;;;;4.37;100.00;96565.75;5116454;27;20404;-47
2022/02/18 05:26:23;;;;;;;11.23;6.88;;;;;;;4.39;100.00;96571.63;5113631;28;20395;-45
2022/02/18 05:28:50;;;;;;;11.07;6.68;;;;;;;4.42;100.00;96566.28;5114254;28;20483;-46
2022/02/18 05:31:15;;;;;;;13.05;6.50;;;;;;;4.33;100.00;96574.56;5109288;28;20053;-46
2022/02/18 05:33:41;;;;;;;9.25;5.70;;;;;;;4.36;100.00;96576.13;5110661;28;20038;-42
2022/02/18 05:36:07;;;;;;;9.75;5.07;;;;;;;4.44;100.00;96582.47;5112314;28;20179;-45
2022/02/18 05:38:33;;;;;;;11.70;6.47;;;;;;;4.50;100.00;96592.38;5114087;28;20042;-45
2022/02/18 05:40:58;;;;;;;8.13;5.13;;;;;;;4.47;100.00;96582.28;5113894;28;20043;-50
2022/02/18 05:43:24;;;;;;;11.93;6.80;;;;;;;4.43;100.00;96583.38;5110947;28;20041;-48
2022/02/18 05:45:50;;;;;;;11.93;6.18;;;;;;;4.29;100.00;96574.84;5112183;28;20039;-49
2022/02/18 05:48:15;;;;;;;12.80;7.43;;;;;;;4.36;100.00;96597.50;5113283;28;20047;-45
2022/02/18 05:50:41;;;;;;;10.30;6.30;;;;;;;4.16;100.00;96580.69;5112674;28;20047;-50
2022/02/18 05:53:07;;;;;;;14.20;6.05;;;;;;;4.29;100.00;96600.56;5112548;28;20067;-42
2022/02/18 05:55:33;;;;;;;12.25;7.22;;;;;;;4.23;100.00;96592.28;5112610;28;20036;-42
2022/02/18 05:57:58;;;;;;;15.07;8.15;;;;;;;4.32;100.00;96602.94;5111798;28;20093;-43
2022/02/18 06:00:24;;;;;;;16.08;7.50;;;;;;;4.31;100.00;96602.09;5112745;28;20544;-44
2022/02/18 06:02:50;;;;;;;18.02;7.22;;;;;;;4.25;100.00;96594.75;5129903;27;20156;-43
2022/02/18 06:05:16;;;;;;;11.98;5.97;;;;;;;4.24;100.00;96603.34;5132752;27;20047;-42
2022/02/18 06:07:43;;;;;;;13.35;6.75;;;;;;;4.35;100.00;96615.59;5115663;27;20081;-43
2022/02/18 06:10:09;;;;;;;15.50;7.80;;;;;;;4.36;100.00;96607.78;5133239;27;20158;-41
2022/02/18 06:12:34;;;;;;;14.70;7.82;;;;;;;4.39;100.00;96617.09;5112958;27;20043;-41
2022/02/18 06:15:00;;;;;;;15.63;8.60;;;;;;;4.38;100.00;96618.84;5095883;27;20039;-42
2022/02/18 06:17:26;;;;;;;16.42;7.20;;;;;;;4.32;100.00;96613.22;5133972;27;20046;-41
2022/02/18 06:19:54;;;;;;;11.67;6.87;;;;;;;4.41;100.00;96621.22;5133823;27;20039;-43
2022/02/18 06:22:22;;;;;;;14.63;7.95;;;;;;;4.42;100.00;96629.75;5113354;27;20189;-42
2022/02/18 06:24:47;;;;;;;15.45;7.78;;;;;;;4.30;100.00;96620.19;5116042;27;20070;-41
2022/02/18 06:27:13;;;;;;;13.40;7.05;;;;;;;4.33;100.00;96627.72;5122478;27;20082;-42
2022/02/18 06:29:39;;;;;;;12.70;6.45;;;;;;;4.35;100.00;96637.00;5133446;27;20038;-41
2022/02/18 06:32:08;;;;;;;11.93;5.95;;;;;;;4.34;100.00;96637.09;5133530;27;20067;-43
2022/02/18 06:34:34;;;;;;;14.10;7.32;;;;;;;4.31;100.00;96643.25;5133261;27;20031;-42
2022/02/18 06:37:00;;;;;;;13.45;6.47;;;;;;;4.28;100.00;96640.03;5133084;27;20171;-43
2022/02/18 06:39:26;;;;;;;14.75;7.60;;;;;;;4.33;100.00;96650.88;5133672;27;20129;-42
2022/02/18 06:41:51;;;;;;;14.75;7.50;;;;;;;4.38;100.00;96656.56;5133433;27;20168;-41
2022/02/18 06:44:17;;;;;;;11.68;6.63;;;;;;;4.34;100.00;96648.22;5114743;27;20585;-42
2022/02/18 06:46:43;;;;;;;13.00;7.40;;;;;;;4.28;100.00;96637.47;5133026;27;20400;-44
2022/02/18 06:49:08;;;;;;;11.00;7.07;;;;;;;4.38;100.00;96654.84;5132927;27;20095;-42
2022/02/18 06:51:34;;;;;;;11.98;6.68;;;;;;;4.17;100.00;96638.91;5133008;27;20065;-43
2022/02/18 06:54:00;;;;;;;12.90;7.03;;;;;;;4.32;100.00;96659.50;5132130;27;20063;-43
2022/02/18 06:56:26;;;;;;;14.68;6.32;;;;;;;4.34;100.00;96661.06;5132665;27;20151;-42
2022/02/18 06:58:54;;;;;;;11.43;6.00;;;;;;;4.36;100.00;96671.25;5132814;27;20399;-43
2022/02/18 07:01:20;;;;;;;10.85;5.90;;;;;;;4.26;100.00;96663.25;5132687;27;20104;-42
2022/02/18 07:03:46;;;;;;;8.48;5.00;;;;;;;4.30;100.00;96672.44;5097446;27;20448;-42
2022/02/18 07:06:11;;;;;;;13.00;6.70;;;;;;;4.28;100.00;96671.72;5132295;27;20038;-42
2022/02/18 07:08:37;;;;;;;10.45;5.53;;;;;;;4.29;100.00;96698.25;5132322;27;20095;-42
2022/02/18 07:11:03;;;;;;;8.18;5.43;;;;;;;4.23;100.00;96696.84;5114179;27;20035;-42
2022/02/18 07:13:29;;;;;;;11.05;5.45;;;;;;;4.06;100.00;96679.81;5114199;27;20035;-42
2022/02/18 07:15:55;;;;;;;15.55;6.75;;;;;;;4.15;100.00;96712.69;5096058;27;20053;-41
2022/02/18 07:18:21;;;;;;;17.38;8.18;;;;;;;4.09;100.00;96723.31;5132413;27;20035;-42
2022/02/18 07:20:47;;;;;;;9.75;4.63;;;;;;;3.94;100.00;96736.19;5132238;27;20047;-43
2022/02/18 07:23:13;;;;;;;7.57;3.28;;;;;;;3.80;100.00;96744.66;5132396;27;20510;-44
2022/02/18 07:25:39;;;;;;;6.47;3.47;;;;;;;3.65;100.00;96741.19;5113711;27;20062;-43
2022/02/18 07:28:05;;;;;;;6.53;2.95;;;;;;;3.76;100.00;96745.75;5113019;27;20031;-42
2022/02/18 07:30:31;;;;;;;5.18;3.20;;;;;;;3.70;100.00;96746.91;5113494;27;20122;-43
2022/02/18 07:32:57;;;;;;;6.40;3.20;;;;;;;3.68;100.00;96758.16;5131740;27;20174;-42
2022/02/18 07:35:24;;;;;;;5.72;3.08;;;;;;;3.60;100.00;96761.16;5116180;27;20042;-42
2022/02/18 07:37:49;;;;;;;7.40;4.35;;;;;;;3.62;100.00;96774.72;5112935;27;20058;-44
2022/02/18 07:40:16;;;;;;;2.45;1.73;;;;;;;3.56;100.00;96771.69;5132385;27;20086;-43
2022/02/18 07:42:43;;;;;;;3.47;1.98;;;;;;;3.46;100.00;96780.75;5113199;27;20046;-43
2022/02/18 07:45:10;;;;;;;5.30;2.45;;;;;;;3.44;100.00;96780.03;5131582;27;20134;-43
2022/02/18 07:47:36;;;;;;;4.05;2.33;;;;;;;3.46;100.00;96785.88;5091838;28;20518;-42
2022/02/18 07:50:03;;;;;;;3.60;1.60;;;;;;;3.62;100.00;96797.84;5131959;27;20081;-43
2022/02/18 07:52:30;;;;;;;4.80;2.33;;;;;;;3.54;100.00;96788.91;5093335;28;20035;-43
2022/02/18 07:54:56;;;;;;;2.88;1.70;;;;;;;3.41;100.00;96770.72;5111918;27;20081;-42
2022/02/18 07:57:23;;;;;;;4.32;2.50;;;;;;;3.60;100.00;96786.84;5131631;27;20046;-42
2022/02/18 07:59:49;;;;;;;4.10;2.20;;;;;;;3.65;100.00;96799.44;5112801;27;20084;-42
2022/02/18 08:02:15;;;;;;;4.88;2.30;;;;;;;3.64;100.00;96796.03;5113452;27;20055;-42
2022/02/18 08:04:42;;;;;;;5.75;2.83;;;;;;;3.73;100.00;96807.56;5131043;27;20035;-42
2022/02/18 08:07:07;;;;;;;4.30;2.40;;;;;;;3.65;100.00;96790.00;5131334;27;20046;-42
2022/02/18 08:09:33;;;;;;;3.65;2.15;;;;;;;3.74;100.00;96825.47;5105794;27;20093;-42
2022/02/18 08:12:00;;;;;;;5.00;2.70;;;;;;;3.72;100.00;96824.69;5112979;27;20087;-43
2022/02/18 08:14:25;;;;;;;4.13;2.42;;;;;;;3.74;100.00;96835.75;5113116;27;20130;-42
2022/02/18 08:16:51;;;;;;;5.55;2.80;;;;;;;3.68;100.00;96835.22;5131766;27;20146;-43
2022/02/18 08:19:20;;;;;;;7.28;2.80;;;;;;;3.69;100.00;96832.59;5113206;27;20072;-42
2022/02/18 08:21:49;;;;;;;8.43;2.83;;;;;;;3.75;100.00;96837.41;5131180;27;20586;-42
2022/02/18 08:24:18;;;;;;;4.10;2.58;;;;;;;3.96;100.00;96840.56;5096254;27;20047;-42
2022/02/18 08:26:48;;;;;;;5.32;2.97;;;;;;;4.06;100.00;96846.03;5112927;27;20528;-42
2022/02/18 08:29:15;;;;;;;4.70;2.47;;;;;;;4.17;100.00;96848.88;5112752;28;20582;-44
2022/02/18 08:31:41;;;;;;;7.30;2.58;;;;;;;4.34;100.00;96847.97;5131038;27;20042;-43
2022/02/18 08:34:07;;;;;;;7.28;2.70;;;;;;;4.23;100.00;96838.25;5113247;28;20050;-42
2022/02/18 08:36:35;;;;;;;5.45;2.50;;;;;;;4.25;100.00;96852.66;5131190;27;20076;-42
2022/02/18 08:39:05;;;;;;;3.78;1.98;;;;;;;4.19;100.00;96862.44;5112430;28;20125;-42
2022/02/18 08:41:32;;;;;;;4.50;2.17;;;;;;;4.23;100.00;96872.50;5112518;28;20417;-43
2022/02/18 08:43:58;;;;;;;5.28;2.55;;;;;;;4.20;99.45;96864.94;5112953;28;20050;-42
2022/02/18 08:46:28;;;;;;;5.85;1.92;;;;;;;4.11;97.73;96873.16;5116119;27;20035;-42
2022/02/18 08:48:53;;;;;;;3.83;2.00;;;;;;;3.97;98.82;96870.50;5134417;27;20039;-44
2022/02/18 08:51:19;;;;;;;3.17;2.17;;;;;;;4.03;99.64;96853.94;5123739;27;20046;-43
2022/02/18 08:53:47;;;;;;;6.55;2.45;;;;;;;4.26;100.00;96874.06;5115277;28;20069;-42
2022/02/18 08:56:13;;;;;;;4.38;2.58;;;;;;;4.35;98.68;96883.03;5096718;28;20039;-42
2022/02/18 08:58:38;;;;;;;2.28;1.52;;;;;;;4.50;96.03;96879.63;5097008;28;20046;-42
2022/02/18 09:01:04;;;;;;;1.80;1.33;;;;;;;4.64;93.96;96887.41;5129796;27;20055;-43
2022/02/18 09:03:30;;;;;;;4.00;2.15;;;;;;;4.53;91.82;96895.72;5135325;27;20049;-42
2022/02/18 09:05:57;;;;;;;2.90;1.92;;;;;;;4.31;92.62;96890.09;5096514;28;20461;-41
2022/02/18 09:08:24;;;;;;;1.75;1.30;;;;;;;4.30;93.56;96895.28;5113669;28;20035;-43
2022/02/18 09:10:55;;;;;;;7.30;2.40;;;;;;;4.46;93.92;96901.28;5100795;27;20054;-42
2022/02/18 09:13:23;;;;;;;5.22;1.70;;;;;;;4.72;92.04;96903.25;5134447;27;20041;-43
2022/02/18 09:15:49;;;;;;;5.50;1.75;;;;;;;4.76;90.01;96901.34;5116656;27;20496;-42
2022/02/18 09:18:32;;;;;;;5.95;1.95;;;;;;;4.65;89.95;96905.34;5134844;27;20041;-44
2022/02/18 09:20:58;;;;;;;6.57;2.50;;;;;;;4.55;90.63;96900.78;5115166;27;20046;-43
2022/02/18 09:23:24;;;;;;;6.65;2.45;;;;;;;4.83;91.40;96906.06;5120442;27;20043;-43
2022/02/18 09:25:49;;;;;;;2.80;1.80;;;;;;;5.24;88.83;96908.84;5134663;27;20054;-43
2022/02/18 09:28:15;;;;;;;3.05;1.50;;;;;;;5.27;85.80;96908.69;5133249;27;20158;-44
2022/02/18 09:30:46;;;;;;;2.88;1.60;;;;;;;5.52;83.35;96920.97;5133811;27;20035;-43
2022/02/18 09:33:12;;;;;;;2.25;1.52;;;;;;;6.35;78.28;96921.13;5134140;27;20047;-43
2022/02/18 09:35:38;;;;;;;3.72;1.55;;;;;;;6.94;72.14;96923.47;5115775;27;20376;-43
2022/02/18 09:38:06;;;;;;;6.10;1.80;;;;;;;7.48;71.06;96922.47;5134257;27;20084;-43
2022/02/18 09:40:31;;;;;;;2.55;1.45;;;;;;;7.78;66.25;96896.31;5134297;27;20042;-43
2022/02/18 09:42:58;;;;;;;5.95;1.98;;;;;;;7.55;68.15;96921.13;5134246;27;20035;-43
2022/02/18 09:45:25;;;;;;;3.03;1.48;;;;;;;8.13;67.42;96924.13;5115806;27;20043;-42
2022/02/18 09:47:51;;;;;;;3.25;1.20;;;;;;;8.57;63.56;96914.16;5134258;27;20042;-43
2022/02/18 09:50:18;;;;;;;2.35;1.63;;;;;;;9.01;63.02;96934.28;5133993;27;20031;-42
2022/02/18 09:52:43;;;;;;;2.22;1.63;;;;;;;8.11;62.26;96913.91;5115326;27;20046;-42
2022/02/18 09:55:09;;;;;;;2.50;0.93;;;;;;;7.47;63.64;96949.25;5134325;27;20043;-42
2022/02/18 09:57:36;;;;;;;1.92;0.95;;;;;;;6.86;65.55;96930.84;5133994;27;20083;-42
2022/02/18 10:00:09;;;;;;;2.05;1.30;;;;;;;6.59;66.83;96947.16;5132870;27;20050;-41
2022/02/18 10:02:41;;;;;;;2.08;1.17;;;;;;;6.25;67.25;96952.72;5113489;27;20076;-42
2022/02/18 10:05:07;;;;;;;1.60;0.93;;;;;;;6.09;68.05;96970.03;5134218;27;20047;-43
2022/02/18 10:07:33;;;;;;;0.88;0.73;;;;;;;5.75;69.41;96966.03;5133561;27;20070;-43
2022/02/18 10:09:59;;;;;;;2.58;0.80;;;;;;;5.41;70.14;96978.28;5098434;27;20043;-42
2022/02/18 10:12:36;;;;;;;1.55;0.90;;;;;;;5.28;71.60;96990.19;5133112;27;20061;-42
2022/02/18 10:15:09;;;;;;;3.53;1.00;;;;;;;5.01;72.93;96992.56;5115184;27;20031;-43
2022/02/18 10:17:41;;;;;;;1.33;0.63;;;;;;;4.87;73.44;96995.03;5133506;27;20031;-42
2022/02/18 10:20:16;;;;;;;0.90;0.60;;;;;;;4.81;74.08;97007.44;5132518;27;20039;-42
2022/02/18 10:22:58;;;;;;;2.58;1.10;;;;;;;4.73;73.97;97005.25;5114310;27;20091;-42
2022/02/18 10:25:26;;;;;;;2.53;1.00;;;;;;;4.63;75.11;97009.25;5133158;27;20046;-44
2022/02/18 10:27:53;;;;;;;0.52;0.40;;;;;;;4.43;69.58;97025.75;5133815;27;20045;-42
2022/02/18 10:30:22;;;;;;;0.80;0.55;;;;;;;4.30;67.26;97031.56;5133595;27;20056;-43
2022/02/18 10:32:59;;;;;;;0.75;0.38;;;;;;;4.20;65.13;97028.66;5097453;27;20043;-42
2022/02/18 10:35:33;;;;;;;2.13;0.50;;;;;;;4.25;64.13;97034.41;5114891;27;20050;-43
2022/02/18 10:37:59;;;;;;;2.53;0.60;;;;;;;4.51;64.06;97049.31;5114544;27;20488;-43
2022/02/18 10:40:25;;;;;;;1.45;0.57;;;;;;;4.91;63.67;97053.19;5114968;27;20035;-43
2022/02/18 10:42:52;;;;;;;2.75;0.73;;;;;;;5.72;62.06;97053.81;5129375;27;20042;-43
2022/02/18 10:45:26;;;;;;;1.42;0.55;;;;;;;5.97;58.71;97064.41;5114367;27;20035;-44
2022/02/18 10:48:09;;;;;;;1.23;0.77;;;;;;;5.93;59.70;97060.38;5133111;27;20516;-43
2022/02/18 10:50:35;;;;;;;2.40;0.90;;;;;;;6.01;60.05;97062.50;5113911;27;20646;-43
2022/02/18 10:53:20;;;;;;;2.42;0.75;;;;;;;6.27;59.60;97070.41;5133684;27;20533;-43
2022/02/18 10:55:57;;;;;;;0.80;0.65;;;;;;;6.03;58.28;97074.38;5114299;27;20499;-43
2022/02/18 10:58:30;;;;;;;1.63;1.00;;;;;;;5.92;59.42;97081.91;5132717;27;20043;-43
2022/02/18 11:01:06;;;;;;;1.15;0.60;;;;;;;5.83;60.06;97090.97;5113748;27;20043;-42
2022/02/18 11:03:33;;;;;;;1.73;0.80;;;;;;;5.82;60.13;97099.63;5132178;27;20092;-43
2022/02/18 11:06:22;;;;;;;1.50;0.75;;;;;;;5.57;59.78;97106.22;5097679;27;20379;-43
2022/02/18 11:08:48;;;;;;;2.28;0.80;;;;;;;5.77;60.14;97101.63;5109186;27;20582;-42
2022/02/18 11:11:13;;;;;;;2.95;0.80;;;;;;;5.87;59.59;97107.13;5113891;27;20125;-44
2022/02/18 11:13:40;;;;;;;2.25;0.80;;;;;;;5.86;59.73;97108.81;5113524;27;20051;-44
2022/02/18 11:16:09;;;;;;;2.97;0.85;;;;;;;5.93;59.11;97112.75;5113586;27;20150;-44
2022/02/18 11:18:39;;;;;;;0.70;0.43;;;;;;;6.08;57.63;97112.78;5113625;27;20646;-42
2022/02/18 11:21:06;;;;;;;;;;;;;;;5.81;56.16;97128.88;5132412;27;20506;-43
2022/02/18 11:23:32;;;;;;;1.98;0.60;;;;;;;5.77;56.17;97126.56;5076120;28;19915;-42
2022/02/18 11:25:59;;;;;;;1.73;0.20;;;;;;;5.94;55.75;97137.63;5110709;28;20045;-45
2022/02/18 11:28:27;;;;;;;1.05;0.70;;;;;;;5.86;55.76;97141.53;5113181;27;20483;-43
2022/02/18 11:30:52;;;;;;;1.00;0.50;;;;;;;5.70;54.87;97143.31;5113346;27;20035;-42
2022/02/18 11:33:21;;;;;;;0.82;0.43;;;;;;;5.64;54.87;97141.06;5113421;27;20128;-43